Time;durP1;ratioP1;P1;durP2;ratioP2;P2;SDS_P1;SDS_P2;PMS_P1;PMS_P2;Temp;Humidity;BMP_temperature;BMP_pressure;BME280_temperature;BME280_humidity;BME280_pressure;Samples;Min_cycle;Max_cycle;Signal;HPM_P1;HPM_P2
2023/01/06 00:02:25;;;;;;;25.23;15.07;;;9.70;99.90;;;;;;4994886;28;20718;-69
2023/01/06 00:04:51;;;;;;;26.43;15.10;;;9.60;99.90;;;;;;4994900;28;20208;-69
2023/01/06 00:07:16;;;;;;;26.40;14.37;;;9.60;99.90;;;;;;4995200;28;20180;-70
2023/01/06 00:09:42;;;;;;;24.30;14.23;;;9.60;99.90;;;;;;4993307;28;20204;-69
2023/01/06 00:12:08;;;;;;;21.80;13.67;;;9.60;99.90;;;;;;4995038;28;20172;-68
2023/01/06 00:14:33;;;;;;;25.83;13.87;;;9.60;99.90;;;;;;4995204;28;20169;-70
2023/01/06 00:16:59;;;;;;;21.83;13.27;;;9.60;99.90;;;;;;4994817;28;20172;-69
2023/01/06 00:19:25;;;;;;;20.37;12.27;;;9.60;99.90;;;;;;4995080;28;20177;-69
2023/01/06 00:21:51;;;;;;;19.40;11.87;;;9.50;99.90;;;;;;4993387;28;20200;-70
2023/01/06 00:24:16;;;;;;;19.63;11.93;;;9.50;99.90;;;;;;4994843;28;20242;-70
2023/01/06 00:26:42;;;;;;;17.77;10.33;;;9.50;99.90;;;;;;4994758;28;20540;-69
2023/01/06 00:29:09;;;;;;;15.57;9.80;;;9.40;99.90;;;;;;4994532;28;20727;-69
2023/01/06 00:31:37;;;;;;;17.73;9.33;;;9.40;99.90;;;;;;4993238;28;20220;-71
2023/01/06 00:34:03;;;;;;;14.40;9.07;;;9.40;99.90;;;;;;4993478;28;20183;-69
2023/01/06 00:36:28;;;;;;;16.57;8.87;;;9.40;99.90;;;;;;4994544;28;20604;-69
2023/01/06 00:38:54;;;;;;;14.13;8.53;;;9.40;99.90;;;;;;4994323;28;20191;-70
2023/01/06 00:44:05;;;;;;;11.47;7.27;;;9.30;99.90;;;;;;4994885;28;20203;-69
2023/01/06 00:46:33;;;;;;;17.50;7.30;;;9.30;99.90;;;;;;4994311;28;20259;-69
2023/01/06 00:49:00;;;;;;;9.23;6.63;;;9.30;99.90;;;;;;4993090;28;20180;-69
2023/01/06 00:51:26;;;;;;;9.37;6.50;;;9.30;99.90;;;;;;4992741;28;20722;-69
2023/01/06 00:53:52;;;;;;;11.10;6.07;;;9.20;99.90;;;;;;4994417;28;20177;-69
2023/01/06 00:56:18;;;;;;;10.87;6.53;;;9.20;99.90;;;;;;4992824;28;20179;-69
2023/01/06 00:58:43;;;;;;;10.30;6.50;;;9.20;99.90;;;;;;4992925;28;20592;-69
2023/01/06 01:01:10;;;;;;;10.67;6.37;;;9.20;99.90;;;;;;4992801;28;20291;-69
2023/01/06 01:03:37;;;;;;;7.53;6.30;;;9.20;99.90;;;;;;4994145;28;20180;-69
2023/01/06 01:06:05;;;;;;;15.17;6.97;;;9.20;99.90;;;;;;4995240;28;20219;-69
2023/01/06 01:08:32;;;;;;;9.73;6.57;;;9.20;99.90;;;;;;4998484;28;20184;-69
2023/01/06 01:11:08;;;;;;;9.53;5.97;;;9.20;99.90;;;;;;4997994;28;20208;-69
2023/01/06 01:13:34;;;;;;;12.63;6.77;;;9.20;99.90;;;;;;4998337;28;20316;-69
2023/01/06 01:16:05;;;;;;;12.80;6.43;;;9.20;99.90;;;;;;4996932;28;20292;-69
2023/01/06 01:18:32;;;;;;;9.07;6.57;;;9.20;99.90;;;;;;4996825;28;20239;-69
2023/01/06 01:20:57;;;;;;;7.87;5.97;;;9.20;99.90;;;;;;4998032;28;20203;-69
2023/01/06 01:23:23;;;;;;;7.90;5.80;;;9.20;99.90;;;;;;4996653;28;20188;-69
2023/01/06 01:25:53;;;;;;;10.00;6.30;;;9.20;99.90;;;;;;4997944;28;20176;-69
2023/01/06 01:28:18;;;;;;;9.17;6.00;;;9.30;99.90;;;;;;4996641;28;20180;-69
2023/01/06 01:30:44;;;;;;;9.50;5.50;;;9.30;99.90;;;;;;4996238;28;20212;-69
2023/01/06 01:33:10;;;;;;;6.33;5.60;;;9.30;99.90;;;;;;4997702;28;20701;-69
2023/01/06 01:35:35;;;;;;;10.00;5.53;;;9.40;99.90;;;;;;4997694;28;20668;-69
2023/01/06 01:38:01;;;;;;;9.67;5.20;;;9.40;99.90;;;;;;4996333;28;20275;-69
2023/01/06 01:40:27;;;;;;;9.87;5.10;;;9.40;99.90;;;;;;4997870;28;20666;-69
2023/01/06 01:42:52;;;;;;;7.10;5.07;;;9.40;99.90;;;;;;4997753;28;20204;-69
2023/01/06 01:45:18;;;;;;;7.70;5.47;;;9.40;99.90;;;;;;4997774;28;20172;-69
2023/01/06 01:48:12;;;;;;;7.77;5.43;;;9.40;99.90;;;;;;4997521;28;20180;-69
2023/01/06 01:50:44;;;;;;;6.20;5.07;;;9.40;99.90;;;;;;4995375;28;20278;-69
2023/01/06 01:53:24;;;;;;;6.40;5.30;;;9.40;99.90;;;;;;4997346;28;20205;-69
2023/01/06 01:55:52;;;;;;;10.00;5.10;;;9.50;99.90;;;;;;4997426;28;20161;-69
2023/01/06 01:58:41;;;;;;;4.93;4.40;;;9.60;99.90;;;;;;4997618;28;20171;-69
2023/01/06 02:01:10;;;;;;;4.30;3.90;;;9.60;99.90;;;;;;4997567;28;20201;-69
2023/01/06 02:03:37;;;;;;;5.80;4.40;;;9.70;99.90;;;;;;4995990;28;20185;-69
2023/01/06 02:06:09;;;;;;;6.83;4.60;;;9.60;99.90;;;;;;4997381;28;20188;-69
2023/01/06 02:08:56;;;;;;;10.17;4.53;;;9.70;99.90;;;;;;4997502;28;20165;-69
2023/01/06 02:11:22;;;;;;;5.00;4.50;;;9.80;99.90;;;;;;4976545;28;20251;-69
2023/01/06 02:14:01;;;;;;;5.72;4.32;;;9.80;99.90;;;;;;4997145;28;20263;-69
2023/01/06 02:16:39;;;;;;;11.20;4.07;;;9.70;99.90;;;;;;4997373;28;20244;-69
2023/01/06 02:19:56;;;;;;;7.63;4.10;;;9.70;99.90;;;;;;4995037;28;20647;-69
2023/01/06 02:22:40;;;;;;;4.00;3.70;;;9.70;99.90;;;;;;4980222;28;20189;-69
2023/01/06 02:25:21;;;;;;;6.10;3.83;;;9.70;99.90;;;;;;4996696;28;20164;-69
2023/01/06 02:28:15;;;;;;;4.57;4.13;;;9.60;99.90;;;;;;4996761;28;20161;-69
2023/01/06 02:30:50;;;;;;;6.40;3.97;;;9.70;99.90;;;;;;4996901;28;20212;-69
2023/01/06 02:33:26;;;;;;;5.73;3.97;;;9.70;99.90;;;;;;4997051;28;20161;-69
2023/01/06 02:36:06;;;;;;;5.70;4.13;;;9.70;99.90;;;;;;4996927;28;20153;-69
2023/01/06 02:38:49;;;;;;;4.43;3.77;;;9.70;99.90;;;;;;4995444;28;20187;-69
2023/01/06 02:41:40;;;;;;;6.10;4.43;;;9.70;99.90;;;;;;4996912;28;20223;-69
2023/01/06 02:44:20;;;;;;;4.87;3.73;;;9.80;99.90;;;;;;4997117;28;20602;-69
2023/01/06 02:47:14;;;;;;;5.75;3.80;;;9.90;99.90;;;;;;4997176;28;20161;-69
2023/01/06 02:50:14;;;;;;;4.20;3.90;;;9.90;99.90;;;;;;4998373;28;20271;-69
2023/01/06 02:52:53;;;;;;;5.47;3.90;;;9.90;99.90;;;;;;4988344;28;20545;-69
2023/01/06 02:55:37;;;;;;;5.70;4.20;;;9.90;99.90;;;;;;4997635;28;20230;-69
2023/01/06 02:58:17;;;;;;;6.93;4.20;;;9.90;99.90;;;;;;4995787;28;20169;-70
2023/01/06 03:00:48;;;;;;;6.63;4.20;;;9.90;99.90;;;;;;4996644;28;20192;-69
2023/01/06 03:03:18;;;;;;;6.28;4.45;;;9.90;99.90;;;;;;4996774;28;20167;-69
2023/01/06 03:05:48;;;;;;;9.67;4.33;;;9.90;99.90;;;;;;4996845;28;20263;-69
2023/01/06 03:08:21;;;;;;;5.97;4.47;;;9.90;99.90;;;;;;4996226;28;20176;-69
2023/01/06 03:10:49;;;;;;;5.50;4.27;;;9.90;99.90;;;;;;4994853;28;20212;-69
2023/01/06 03:13:34;;;;;;;4.80;4.33;;;9.90;99.90;;;;;;4994899;28;20176;-69
2023/01/06 03:16:00;;;;;;;5.73;4.30;;;9.90;99.90;;;;;;4996239;28;20191;-69
2023/01/06 03:18:26;;;;;;;7.87;4.00;;;9.90;99.90;;;;;;4996398;28;20201;-69
2023/01/06 03:20:56;;;;;;;8.33;4.43;;;9.90;99.90;;;;;;4995873;28;20212;-69
2023/01/06 03:23:22;;;;;;;7.13;4.20;;;9.90;99.90;;;;;;4995929;28;20248;-69
2023/01/06 03:25:48;;;;;;;6.17;3.90;;;9.90;99.90;;;;;;4994578;28;20173;-69
2023/01/06 03:28:14;;;;;;;6.47;4.10;;;9.90;99.90;;;;;;4995775;28;20187;-69
2023/01/06 03:30:52;;;;;;;4.40;4.00;;;9.90;99.90;;;;;;4994649;28;20283;-69
2023/01/06 03:33:36;;;;;;;6.73;4.40;;;9.90;99.90;;;;;;4994491;28;20640;-69
2023/01/06 03:36:13;;;;;;;9.33;4.53;;;9.90;99.90;;;;;;4994514;28;20622;-69
2023/01/06 03:39:03;;;;;;;6.53;4.30;;;10.00;99.90;;;;;;4994423;28;20187;-69
2023/01/06 03:44:51;;;;;;;5.47;4.00;;;10.00;99.90;;;;;;4996271;28;20571;-69
2023/01/06 03:47:36;;;;;;;5.97;4.10;;;10.00;99.90;;;;;;4995756;28;20169;-69
2023/01/06 03:50:11;;;;;;;4.50;4.10;;;10.00;99.90;;;;;;4995327;28;20204;-69
2023/01/06 03:52:45;;;;;;;4.03;3.73;;;10.00;99.90;;;;;;4995679;28;20252;-70
2023/01/06 03:55:19;;;;;;;7.83;3.70;;;10.00;99.90;;;;;;4994106;28;20192;-69
2023/01/06 03:57:49;;;;;;;8.67;3.80;;;10.00;99.90;;;;;;4994046;28;20248;-69
2023/01/06 04:00:27;;;;;;;5.87;3.60;;;9.90;99.90;;;;;;4995467;28;20295;-69
2023/01/06 04:02:53;;;;;;;4.20;3.67;;;9.90;99.90;;;;;;4995351;28;20164;-69
2023/01/06 04:05:26;;;;;;;4.77;3.70;;;10.00;99.90;;;;;;4995630;28;20296;-69
2023/01/06 04:07:52;;;;;;;5.70;4.10;;;10.00;99.90;;;;;;4994270;28;20180;-69
2023/01/06 04:10:19;;;;;;;4.97;3.37;;;10.00;99.90;;;;;;4995082;28;20212;-69
2023/01/06 04:12:45;;;;;;;6.03;3.47;;;10.00;99.90;;;;;;4993624;28;20331;-69
2023/01/06 04:15:12;;;;;;;5.23;3.63;;;10.00;99.90;;;;;;4995395;28;20606;-69
2023/01/06 04:17:39;;;;;;;8.63;3.50;;;10.00;99.90;;;;;;4993593;28;20222;-69
2023/01/06 04:20:06;;;;;;;6.10;3.43;;;10.00;99.90;;;;;;4994730;28;20203;-69
2023/01/06 04:22:32;;;;;;;7.37;3.37;;;10.10;99.90;;;;;;4993465;28;20187;-68
2023/01/06 04:24:58;;;;;;;6.17;3.73;;;10.10;99.90;;;;;;4994957;28;20181;-69
2023/01/06 04:27:24;;;;;;;6.77;3.87;;;10.00;99.90;;;;;;4994962;28;20180;-69
2023/01/06 04:29:49;;;;;;;8.90;3.40;;;10.00;99.90;;;;;;4994633;28;20254;-68
2023/01/06 04:32:15;;;;;;;6.70;3.43;;;10.10;99.90;;;;;;4994957;28;20211;-69
2023/01/06 04:34:41;;;;;;;6.33;3.10;;;10.10;99.90;;;;;;4995088;28;20201;-69
2023/01/06 04:37:07;;;;;;;4.70;3.27;;;10.10;99.90;;;;;;4994797;28;20548;-69
2023/01/06 04:39:32;;;;;;;8.37;3.30;;;10.10;99.90;;;;;;4993292;28;20176;-68
2023/01/06 04:41:58;;;;;;;4.63;3.00;;;10.10;99.90;;;;;;4992936;28;20188;-69
2023/01/06 04:44:24;;;;;;;3.67;3.30;;;10.10;99.90;;;;;;4994977;28;20207;-69
2023/01/06 04:46:50;;;;;;;3.80;3.23;;;10.10;99.90;;;;;;4993389;28;20183;-69
2023/01/06 04:49:15;;;;;;;3.83;3.40;;;10.10;99.90;;;;;;4995272;28;20169;-69
2023/01/06 04:51:41;;;;;;;4.32;3.20;;;10.10;99.90;;;;;;4994318;28;20570;-69
2023/01/06 04:54:07;;;;;;;4.77;3.20;;;10.10;99.90;;;;;;4993333;28;20176;-69
2023/01/06 04:56:32;;;;;;;5.25;3.45;;;10.10;99.90;;;;;;4993394;28;20212;-69
2023/01/06 04:58:58;;;;;;;11.93;3.50;;;10.10;99.90;;;;;;4994916;28;20176;-69
2023/01/06 05:01:25;;;;;;;7.53;3.47;;;10.10;99.90;;;;;;4993181;28;20207;-70
2023/01/06 05:03:52;;;;;;;5.57;3.63;;;10.00;99.90;;;;;;4993364;28;20247;-69
2023/01/06 05:06:19;;;;;;;4.63;3.23;;;10.00;99.90;;;;;;4993104;28;20185;-69
2023/01/06 05:08:45;;;;;;;3.60;3.30;;;10.00;99.90;;;;;;4994330;28;20180;-69
2023/01/06 05:11:14;;;;;;;4.67;3.10;;;10.00;99.90;;;;;;4994438;28;20212;-69
2023/01/06 05:13:40;;;;;;;3.73;3.30;;;10.00;99.90;;;;;;4994144;28;20188;-68
2023/01/06 05:16:08;;;;;;;3.80;3.50;;;10.00;99.90;;;;;;4994594;28;20251;-69
2023/01/06 05:18:34;;;;;;;5.20;3.40;;;10.00;99.90;;;;;;4993571;28;20219;-69
2023/01/06 05:21:00;;;;;;;3.60;3.20;;;10.00;99.90;;;;;;4994512;28;20204;-69
2023/01/06 05:23:26;;;;;;;4.07;3.30;;;10.00;99.90;;;;;;4994157;28;20187;-69
2023/01/06 05:25:52;;;;;;;4.47;3.27;;;10.00;99.90;;;;;;4994206;28;20262;-69
2023/01/06 05:28:18;;;;;;;4.60;3.17;;;10.00;99.90;;;;;;4992884;28;20184;-69
2023/01/06 05:30:44;;;;;;;3.80;3.50;;;10.10;99.90;;;;;;4992538;28;20216;-69
2023/01/06 05:33:10;;;;;;;6.03;3.50;;;10.10;99.90;;;;;;4992814;28;20181;-69
2023/01/06 05:35:35;;;;;;;7.50;3.70;;;10.10;99.90;;;;;;4992803;28;20208;-69
2023/01/06 05:38:01;;;;;;;5.60;3.80;;;10.20;99.90;;;;;;4994525;28;20507;-69
2023/01/06 05:40:27;;;;;;;7.77;4.17;;;10.10;99.90;;;;;;4994072;28;20204;-69
2023/01/06 05:42:54;;;;;;;6.50;4.82;;;10.20;99.90;;;;;;4992702;28;20208;-69
2023/01/06 05:45:20;;;;;;;5.25;3.67;;;10.20;99.90;;;;;;4994283;28;20180;-68
2023/01/06 05:47:49;;;;;;;5.87;3.60;;;10.10;99.90;;;;;;4992767;28;20295;-69
2023/01/06 05:50:15;;;;;;;4.97;3.17;;;10.20;99.90;;;;;;4993725;28;20263;-68
2023/01/06 05:52:41;;;;;;;3.73;3.20;;;10.20;99.90;;;;;;4994791;28;20224;-68
2023/01/06 05:55:07;;;;;;;3.77;3.17;;;10.20;99.90;;;;;;4997533;28;20656;-68
2023/01/06 05:57:35;;;;;;;3.93;3.20;;;10.20;99.90;;;;;;4997771;28;20183;-68
2023/01/06 06:00:04;;;;;;;4.20;3.30;;;10.10;99.90;;;;;;4997401;28;20197;-68
2023/01/06 06:02:30;;;;;;;3.67;3.37;;;10.20;99.90;;;;;;4996117;28;20279;-68
2023/01/06 06:04:56;;;;;;;3.63;3.00;;;10.20;99.90;;;;;;4997432;28;20215;-68
2023/01/06 06:07:21;;;;;;;3.40;3.10;;;10.20;99.90;;;;;;4997731;28;20177;-69
2023/01/06 06:09:47;;;;;;;4.70;2.83;;;10.20;99.90;;;;;;4997157;28;20279;-68
2023/01/06 06:12:13;;;;;;;3.63;3.30;;;10.20;99.90;;;;;;4995979;28;20180;-68
2023/01/06 06:14:39;;;;;;;3.70;3.40;;;10.20;99.90;;;;;;4996083;28;20267;-68
2023/01/06 06:17:04;;;;;;;3.60;3.20;;;10.10;99.90;;;;;;4995886;28;20184;-69
2023/01/06 06:19:30;;;;;;;6.43;3.10;;;10.10;99.90;;;;;;4996937;28;20637;-68
2023/01/06 06:21:56;;;;;;;2.88;2.67;;;10.10;99.90;;;;;;4995578;28;20255;-68
2023/01/06 06:24:22;;;;;;;3.50;2.90;;;10.10;99.90;;;;;;4995901;28;20177;-68
2023/01/06 06:26:47;;;;;;;3.13;2.93;;;10.10;99.90;;;;;;4995787;28;20200;-68
2023/01/06 06:29:13;;;;;;;4.60;3.17;;;10.00;99.90;;;;;;4995621;28;20199;-68
2023/01/06 06:31:39;;;;;;;3.63;3.13;;;10.10;99.90;;;;;;4995539;28;20216;-68
2023/01/06 06:34:04;;;;;;;3.67;3.37;;;10.10;99.90;;;;;;4996810;28;20183;-68
2023/01/06 06:36:30;;;;;;;6.40;2.97;;;10.10;99.90;;;;;;4996451;28;20593;-68
2023/01/06 06:38:56;;;;;;;3.70;3.40;;;10.10;99.90;;;;;;4996507;28;20184;-68
2023/01/06 06:41:24;;;;;;;3.53;2.90;;;10.00;99.90;;;;;;4996568;28;20204;-68
2023/01/06 06:43:50;;;;;;;5.23;3.10;;;10.10;99.90;;;;;;4996622;28;20211;-68
2023/01/06 06:46:17;;;;;;;4.50;3.20;;;10.10;99.90;;;;;;4995407;28;20212;-68
2023/01/06 06:48:43;;;;;;;3.33;2.93;;;10.10;99.90;;;;;;4996563;28;20199;-68
2023/01/06 06:51:12;;;;;;;5.63;3.30;;;10.10;99.90;;;;;;4996402;28;20684;-69
2023/01/06 06:53:38;;;;;;;4.70;3.13;;;10.10;99.90;;;;;;4996942;28;20157;-69
2023/01/06 06:56:05;;;;;;;3.53;3.27;;;10.20;99.90;;;;;;4994807;28;20176;-64
2023/01/06 06:58:32;;;;;;;3.37;2.73;;;10.10;99.90;;;;;;4996228;28;20637;-64
2023/01/06 07:00:58;;;;;;;3.50;3.20;;;10.20;99.90;;;;;;4996124;28;20207;-63
2023/01/06 07:03:24;;;;;;;3.07;2.93;;;10.20;99.90;;;;;;4995995;28;20164;-64
2023/01/06 07:05:51;;;;;;;3.97;3.03;;;10.20;99.90;;;;;;4994550;28;20184;-64
2023/01/06 07:08:17;;;;;;;3.30;2.97;;;10.20;99.90;;;;;;4995925;28;20165;-64
2023/01/06 07:10:43;;;;;;;4.77;3.60;;;10.20;99.90;;;;;;4995612;28;20730;-64
2023/01/06 07:13:09;;;;;;;3.93;3.20;;;10.20;99.90;;;;;;4995707;28;20269;-64
2023/01/06 07:15:35;;;;;;;5.27;3.37;;;10.10;99.90;;;;;;4994464;28;20315;-64
2023/01/06 07:18:01;;;;;;;5.47;3.23;;;10.10;99.90;;;;;;4994333;28;20177;-64
2023/01/06 07:20:28;;;;;;;3.77;2.80;;;10.10;99.90;;;;;;4995475;28;20200;-64
2023/01/06 07:22:54;;;;;;;3.73;3.00;;;10.10;99.90;;;;;;4995571;28;20180;-64
2023/01/06 07:25:20;;;;;;;3.00;2.90;;;10.10;99.90;;;;;;4995514;28;20247;-64
2023/01/06 07:27:46;;;;;;;5.67;3.33;;;10.00;99.90;;;;;;4995413;28;20184;-64
2023/01/06 07:30:12;;;;;;;3.37;3.13;;;10.00;99.90;;;;;;4993958;28;20250;-64
2023/01/06 07:32:38;;;;;;;3.93;3.10;;;9.90;99.90;;;;;;4995375;28;20641;-64
2023/01/06 07:35:04;;;;;;;3.80;3.40;;;9.90;99.90;;;;;;4994091;28;20185;-64
2023/01/06 07:37:30;;;;;;;3.97;3.10;;;9.90;99.90;;;;;;4995280;28;20173;-69
2023/01/06 07:39:56;;;;;;;3.60;3.30;;;9.80;99.90;;;;;;4995649;28;20196;-68
2023/01/06 07:42:21;;;;;;;3.40;3.13;;;9.80;99.90;;;;;;4995306;28;20196;-65
2023/01/06 07:44:47;;;;;;;3.70;3.37;;;9.80;99.90;;;;;;4995465;28;20176;-66
2023/01/06 07:47:13;;;;;;;4.03;3.20;;;9.80;99.90;;;;;;4995320;28;20181;-64
2023/01/06 07:49:39;;;;;;;4.00;3.40;;;9.70;99.90;;;;;;4995050;28;20184;-64
2023/01/06 07:52:05;;;;;;;3.20;3.00;;;9.70;99.90;;;;;;4995051;28;20536;-64
2023/01/06 07:54:30;;;;;;;3.00;2.80;;;9.70;99.90;;;;;;4994921;28;20179;-64
2023/01/06 07:56:56;;;;;;;4.03;3.10;;;9.70;99.90;;;;;;4995141;28;20179;-64
2023/01/06 07:59:22;;;;;;;3.57;3.27;;;9.70;99.90;;;;;;4994774;28;20176;-64
2023/01/06 08:01:47;;;;;;;3.50;3.20;;;9.70;99.90;;;;;;4993427;28;20664;-64
2023/01/06 08:04:13;;;;;;;3.53;3.23;;;9.70;99.90;;;;;;4995006;28;20185;-64
2023/01/06 08:06:39;;;;;;;3.43;3.20;;;9.70;99.90;;;;;;4995034;28;20177;-64
2023/01/06 08:09:05;;;;;;;5.57;3.50;;;9.70;99.90;;;;;;4993449;28;20280;-64
2023/01/06 08:11:31;;;;;;;4.60;3.30;;;9.70;99.90;;;;;;4993297;28;20299;-64
2023/01/06 08:13:57;;;;;;;3.43;3.20;;;9.70;99.90;;;;;;4994714;28;20259;-64
2023/01/06 08:16:22;;;;;;;3.23;3.03;;;9.70;99.90;;;;;;4992660;28;20183;-64
2023/01/06 08:18:48;;;;;;;5.70;3.57;;;9.70;99.90;;;;;;4994493;28;20173;-64
2023/01/06 08:21:14;;;;;;;6.10;3.00;;;9.70;99.90;;;;;;4994291;28;20196;-64
2023/01/06 08:23:40;;;;;;;3.57;3.27;;;9.70;99.90;;;;;;4993241;28;20255;-64
2023/01/06 08:26:07;;;;;;;3.27;3.07;;;9.70;99.90;;;;;;4994410;28;20241;-64
2023/01/06 08:28:33;;;;;;;3.40;3.10;;;9.70;99.90;;;;;;4993029;28;20188;-64
2023/01/06 08:30:59;;;;;;;3.77;3.43;;;9.80;99.90;;;;;;4994399;28;20267;-64
2023/01/06 08:33:25;;;;;;;4.17;3.77;;;9.80;99.90;;;;;;4994629;28;20169;-64
2023/01/06 08:35:59;;;;;;;4.67;2.90;;;9.80;99.90;;;;;;4994216;28;20179;-63
2023/01/06 08:38:25;;;;;;;3.63;2.87;;;9.80;99.90;;;;;;4994442;28;20176;-64
2023/01/06 08:40:52;;;;;;;3.60;2.90;;;9.80;99.90;;;;;;4994134;28;20201;-64
2023/01/06 08:43:18;;;;;;;4.17;3.47;;;9.80;99.90;;;;;;4994241;28;20661;-63
2023/01/06 08:45:44;;;;;;;3.20;2.90;;;9.90;99.90;;;;;;4994102;28;20322;-64
2023/01/06 08:48:09;;;;;;;3.70;3.13;;;9.90;99.90;;;;;;4994035;28;20256;-64
2023/01/06 08:50:38;;;;;;;3.53;2.80;;;9.90;99.90;;;;;;4992667;28;20238;-64
2023/01/06 08:53:03;;;;;;;3.40;3.10;;;9.90;99.90;;;;;;4994601;28;20534;-64
2023/01/06 08:55:29;;;;;;;3.70;3.13;;;10.00;99.90;;;;;;4993072;28;20176;-64
2023/01/06 08:57:55;;;;;;;3.00;2.80;;;10.00;99.90;;;;;;4994484;28;20220;-64
2023/01/06 09:00:21;;;;;;;3.47;2.90;;;10.10;99.90;;;;;;4995311;28;20247;-64
2023/01/06 09:02:46;;;;;;;4.70;3.20;;;10.10;99.90;;;;;;4995336;28;20172;-64
2023/01/06 09:05:12;;;;;;;5.70;3.17;;;10.10;99.90;;;;;;4994988;28;20212;-63
2023/01/06 09:07:38;;;;;;;3.37;3.00;;;10.00;99.90;;;;;;4993692;28;20209;-63
2023/01/06 09:10:04;;;;;;;5.20;3.27;;;9.90;99.90;;;;;;4994274;28;20575;-63
2023/01/06 09:12:30;;;;;;;3.10;2.90;;;9.80;99.90;;;;;;4994386;28;20180;-63
2023/01/06 09:14:55;;;;;;;3.23;3.03;;;9.70;99.90;;;;;;4994327;28;20176;-64
2023/01/06 09:17:21;;;;;;;7.43;3.23;;;9.60;99.90;;;;;;4994252;28;20180;-64
2023/01/06 09:19:47;;;;;;;3.50;3.20;;;9.60;99.90;;;;;;4993783;28;20175;-64
2023/01/06 09:22:12;;;;;;;3.20;3.00;;;9.50;99.90;;;;;;4994030;28;20688;-64
2023/01/06 09:24:38;;;;;;;3.80;3.03;;;9.50;99.90;;;;;;4994230;28;20251;-64
2023/01/06 09:27:04;;;;;;;3.73;3.50;;;9.50;99.90;;;;;;4995382;28;20173;-63
2023/01/06 09:29:30;;;;;;;3.93;3.57;;;9.40;99.90;;;;;;4996629;28;20184;-64
2023/01/06 09:31:55;;;;;;;3.77;3.47;;;9.40;99.90;;;;;;4997608;28;20271;-64
2023/01/06 09:34:21;;;;;;;3.93;3.63;;;9.40;99.90;;;;;;4998170;28;20231;-64
2023/01/06 09:36:47;;;;;;;4.33;3.60;;;9.40;99.90;;;;;;4997790;28;20247;-64
2023/01/06 09:39:12;;;;;;;6.00;3.43;;;9.40;99.90;;;;;;4998467;28;20650;-64
2023/01/06 09:42:00;;;;;;;5.80;3.83;;;9.40;99.90;;;;;;4997773;28;20255;-64
2023/01/06 09:44:45;;;;;;;4.83;3.70;;;9.50;99.90;;;;;;4997647;28;20608;-64
2023/01/06 09:47:16;;;;;;;4.10;3.80;;;9.50;99.90;;;;;;4997818;28;20161;-63
2023/01/06 09:49:56;;;;;;;4.57;3.90;;;9.50;99.90;;;;;;4996147;28;20176;-64
2023/01/06 09:52:48;;;;;;;4.53;4.13;;;9.60;99.90;;;;;;4997373;28;20156;-64
2023/01/06 09:55:39;;;;;;;5.20;4.13;;;9.60;99.90;;;;;;4997341;28;20164;-64
2023/01/06 09:58:19;;;;;;;4.53;4.13;;;9.60;99.90;;;;;;4997620;28;20676;-63
2023/01/06 10:00:51;;;;;;;4.83;4.33;;;9.60;99.90;;;;;;4995760;28;20212;-64
2023/01/06 10:03:25;;;;;;;4.60;4.20;;;9.60;99.90;;;;;;4997227;28;20182;-64
2023/01/06 10:06:02;;;;;;;4.60;4.20;;;9.60;99.90;;;;;;4995929;28;20184;-66
2023/01/06 10:09:01;;;;;;;5.27;4.77;;;9.60;99.90;;;;;;4996144;28;20608;-65
2023/01/06 10:11:45;;;;;;;5.60;5.10;;;9.50;99.90;;;;;;4996975;28;20208;-65
2023/01/06 10:14:37;;;;;;;6.37;4.73;;;9.50;99.90;;;;;;4995594;28;20172;-63
2023/01/06 10:17:21;;;;;;;5.30;4.80;;;9.50;99.90;;;;;;4997040;28;20319;-64
2023/01/06 10:20:24;;;;;;;7.07;5.57;;;9.50;99.90;;;;;;4995460;28;20584;-64
2023/01/06 10:23:04;;;;;;;5.07;4.57;;;9.50;99.90;;;;;;4996981;28;20160;-65
2023/01/06 10:26:19;;;;;;;6.43;5.30;;;9.50;99.90;;;;;;4997001;28;20240;-64
2023/01/06 10:28:53;;;;;;;6.50;5.90;;;9.50;99.90;;;;;;4960124;28;20587;-64
2023/01/06 10:31:23;;;;;;;5.97;5.27;;;9.50;99.90;;;;;;4996659;28;20201;-64
2023/01/06 10:33:55;;;;;;;6.40;5.47;;;9.50;99.90;;;;;;4997090;28;20532;-64
2023/01/06 10:36:38;;;;;;;9.10;6.80;;;9.50;99.90;;;;;;4997366;28;20164;-64
2023/01/06 10:39:12;;;;;;;6.17;5.57;;;9.50;99.90;;;;;;4994768;28;20235;-65
2023/01/06 10:44:49;;;;;;;7.03;6.43;;;9.50;99.90;;;;;;4996630;28;20175;-64
2023/01/06 10:47:30;;;;;;;7.30;6.00;;;9.50;99.90;;;;;;4996264;28;20173;-65
2023/01/06 10:49:57;;;;;;;6.93;6.27;;;9.60;99.90;;;;;;4996365;28;20748;-65
2023/01/06 10:52:24;;;;;;;6.53;5.90;;;9.60;99.90;;;;;;4995024;28;20645;-65
2023/01/06 10:54:55;;;;;;;7.20;6.13;;;9.70;99.90;;;;;;4996605;28;20643;-66
2023/01/06 10:57:28;;;;;;;7.87;5.97;;;9.70;99.90;;;;;;4997058;28;20157;-69
2023/01/06 11:00:13;;;;;;;7.73;5.70;;;9.70;99.90;;;;;;4997092;28;20242;-66
2023/01/06 11:02:49;;;;;;;6.30;5.70;;;9.80;99.90;;;;;;4996890;28;20153;-66
2023/01/06 11:05:24;;;;;;;6.83;5.27;;;9.80;99.90;;;;;;4996667;28;20160;-67
2023/01/06 11:08:11;;;;;;;5.07;3.97;;;9.90;99.90;;;;;;4996508;28;20164;-66
2023/01/06 11:10:56;;;;;;;4.20;3.90;;;9.90;99.90;;;;;;4996935;28;20238;-68
2023/01/06 11:13:34;;;;;;;4.67;3.70;;;10.00;99.90;;;;;;4996818;28;20156;-68
2023/01/06 11:16:07;;;;;;;4.27;3.80;;;10.10;99.90;;;;;;4996757;28;20173;-65
2023/01/06 11:18:36;;;;;;;3.90;3.60;;;10.10;99.90;;;;;;4996620;28;20231;-67
2023/01/06 11:21:08;;;;;;;8.70;4.27;;;10.10;99.90;;;;;;4994711;28;20319;-65
2023/01/06 11:23:35;;;;;;;3.70;3.40;;;10.20;99.90;;;;;;4995962;28;20184;-65
2023/01/06 11:26:19;;;;;;;4.57;3.53;;;10.20;99.90;;;;;;4995904;28;20275;-66
2023/01/06 11:28:48;;;;;;;5.57;3.50;;;10.30;99.90;;;;;;4994577;28;20187;-66
2023/01/06 11:31:13;;;;;;;4.13;3.50;;;10.30;99.90;;;;;;4995704;28;20207;-65
2023/01/06 11:33:50;;;;;;;3.40;3.10;;;10.40;99.90;;;;;;4995896;28;20821;-65
2023/01/06 11:36:17;;;;;;;4.30;3.53;;;10.40;99.90;;;;;;4995616;28;20244;-65
2023/01/06 11:38:47;;;;;;;4.10;3.70;;;10.40;99.90;;;;;;4995990;28;20200;-65
2023/01/06 11:41:26;;;;;;;3.38;3.17;;;10.50;99.90;;;;;;4995806;28;20193;-66
2023/01/06 11:43:55;;;;;;;4.47;3.80;;;10.50;99.90;;;;;;4996892;28;20195;-66
2023/01/06 11:46:24;;;;;;;3.47;3.23;;;10.60;99.90;;;;;;4996113;28;20185;-65
2023/01/06 11:49:00;;;;;;;3.95;3.47;;;10.60;99.90;;;;;;4994608;28;20556;-65
2023/01/06 11:51:32;;;;;;;5.07;3.70;;;10.70;99.90;;;;;;4994858;28;20204;-66
2023/01/06 11:53:57;;;;;;;3.67;3.35;;;10.70;99.90;;;;;;4995892;28;20153;-65
2023/01/06 11:56:23;;;;;;;3.80;3.50;;;10.70;99.90;;;;;;4996003;28;20821;-66
2023/01/06 11:58:59;;;;;;;3.45;3.15;;;10.70;99.90;;;;;;4996062;28;20626;-65
2023/01/06 12:01:28;;;;;;;3.28;3.08;;;10.70;99.90;;;;;;4995646;28;20217;-65
2023/01/06 12:04:11;;;;;;;4.37;3.43;;;10.80;99.90;;;;;;4994096;28;20188;-65
2023/01/06 12:06:43;;;;;;;4.43;3.50;;;10.80;99.90;;;;;;4994087;28;20196;-65
2023/01/06 12:09:24;;;;;;;3.60;3.40;;;10.70;99.90;;;;;;4994070;28;20181;-65
2023/01/06 12:11:49;;;;;;;4.07;3.30;;;10.80;99.90;;;;;;4994998;28;20234;-65
2023/01/06 12:14:29;;;;;;;4.97;3.30;;;10.80;99.90;;;;;;4993791;28;20176;-65
2023/01/06 12:17:23;;;;;;;3.90;3.60;;;10.90;99.90;;;;;;4995140;28;20156;-65
2023/01/06 12:20:07;;;;;;;3.60;3.25;;;10.90;99.90;;;;;;4993559;28;20176;-65
2023/01/06 12:22:47;;;;;;;3.53;3.25;;;10.90;99.90;;;;;;4994807;28;20212;-65
2023/01/06 12:25:26;;;;;;;3.20;3.00;;;10.90;99.90;;;;;;4994849;28;20157;-65
2023/01/06 12:28:16;;;;;;;4.22;3.30;;;10.90;99.90;;;;;;4993562;28;20226;-65
2023/01/06 12:30:50;;;;;;;3.35;3.10;;;10.90;99.90;;;;;;4994671;28;20242;-65
2023/01/06 12:33:55;;;;;;;3.35;3.10;;;10.90;99.90;;;;;;4993463;28;20186;-65
2023/01/06 12:36:32;;;;;;;8.25;3.30;;;10.90;99.90;;;;;;4979207;28;20188;-65
2023/01/06 12:39:03;;;;;;;4.20;3.27;;;11.00;99.90;;;;;;4994891;28;20172;-66
2023/01/06 12:41:40;;;;;;;6.38;3.25;;;11.00;99.90;;;;;;4993358;28;20200;-63
2023/01/06 12:44:45;;;;;;;3.22;3.00;;;11.00;99.90;;;;;;4994460;28;20227;-64
2023/01/06 12:47:41;;;;;;;4.97;3.33;;;11.10;99.90;;;;;;4994661;28;20176;-64
2023/01/06 12:50:19;;;;;;;3.60;3.30;;;11.40;99.90;;;;;;4993608;28;20665;-63
2023/01/06 12:53:00;;;;;;;3.92;3.63;;;11.60;99.90;;;;;;4994852;28;20165;-63
2023/01/06 12:55:40;;;;;;;3.67;3.38;;;11.50;99.90;;;;;;4994633;28;20621;-63
2023/01/06 12:58:19;;;;;;;3.60;3.30;;;11.40;99.90;;;;;;4994481;28;20165;-65
2023/01/06 13:00:57;;;;;;;3.60;3.30;;;11.20;99.90;;;;;;4993118;28;20239;-65
2023/01/06 13:04:06;;;;;;;3.23;3.00;;;11.20;99.90;;;;;;4992913;28;20228;-65
2023/01/06 13:06:49;;;;;;;4.30;3.25;;;11.10;99.90;;;;;;4953807;28;20199;-65
2023/01/06 13:09:40;;;;;;;4.70;3.60;;;11.10;99.90;;;;;;4994491;28;20214;-65
2023/01/06 13:12:17;;;;;;;4.03;3.63;;;11.10;99.90;;;;;;4994418;28;20264;-65
2023/01/06 13:14:53;;;;;;;3.40;3.10;;;11.20;99.90;;;;;;4994152;28;20211;-65
2023/01/06 13:17:43;;;;;;;3.22;3.03;;;11.30;99.90;;;;;;4994412;28;20652;-65
2023/01/06 13:20:23;;;;;;;3.08;2.90;;;11.40;99.90;;;;;;4994381;28;20291;-65
2023/01/06 13:23:21;;;;;;;3.03;2.83;;;11.50;99.90;;;;;;4994548;28;20702;-65